createdAt,value
2018-07-01T20:23:31.023Z,42.41
2018-07-01T20:24:46.893Z,40.96
2018-07-01T20:26:01.782Z,40.67
2018-07-01T20:27:18.495Z,41.03
2018-07-01T20:28:37.297Z,40.75
2018-07-01T20:29:53.144Z,40.65
2018-07-01T20:31:09.320Z,40.75
2018-07-01T20:32:26.236Z,40.75
2018-07-01T20:33:41.831Z,40.94
2018-07-01T20:34:58.103Z,41.03
2018-07-01T20:36:13.192Z,41.42
2018-07-01T20:37:28.968Z,41.23
2018-07-01T20:38:45.535Z,40.94
2018-07-01T20:40:00.976Z,41.11
2018-07-01T20:41:18.924Z,41.3
2018-07-01T20:42:37.655Z,41.02
2018-07-01T20:43:56.734Z,40.92
2018-07-01T20:45:12.452Z,41.02
2018-07-01T20:46:27.683Z,41.3
2018-07-01T20:47:43.271Z,41.2
2018-07-01T20:49:00.833Z,41.4
2018-07-01T20:50:17.170Z,41.02
2018-07-01T20:51:33.821Z,41.3
2018-07-01T20:52:49.354Z,40.92
2018-07-01T20:54:03.680Z,41.11
2018-07-01T20:55:18.454Z,41.69
2018-07-01T20:56:34.137Z,41.5
2018-07-01T20:57:49.785Z,41.78
2018-07-01T20:59:07.612Z,41.88
2018-07-01T21:00:23.880Z,42.15
2018-07-01T21:01:39.694Z,42.18
2018-07-01T21:02:55.327Z,41.96
2018-07-01T21:04:11.658Z,41.96
2018-07-01T21:05:29.787Z,42.05
2018-07-01T21:06:46.655Z,41.86
2018-07-01T21:08:02.826Z,41.96
2018-07-01T21:09:18.838Z,42.15
2018-07-01T21:10:34.262Z,42.44
2018-07-01T21:11:48.689Z,42.54
2018-07-01T21:13:05.123Z,42.63
2018-07-01T21:14:19.945Z,42.73
2018-07-01T21:15:36.223Z,42.54
2018-07-01T21:16:52.964Z,43.02
2018-07-01T21:18:08.096Z,42.63
2018-07-01T21:19:23.201Z,42.93
2018-07-01T21:20:38.357Z,43.02
2018-07-01T21:21:53.992Z,43.19
2018-07-01T21:23:11.784Z,43.19
2018-07-01T21:24:29.062Z,43.19
2018-07-01T21:25:45.008Z,42.9
2018-07-01T21:26:59.606Z,43.1
2018-07-01T21:28:16.460Z,42.9
2018-07-01T21:29:32.896Z,43.29
2018-07-01T21:30:48.157Z,43.1
2018-07-01T21:32:03.084Z,43.29
2018-07-01T21:33:19.885Z,43.48
2018-07-01T21:34:37.861Z,43.19
2018-07-01T21:35:53.626Z,43.48
2018-07-01T21:37:09.681Z,43.65
2018-07-01T21:38:25.357Z,43.55
2018-07-01T21:39:41.928Z,44.13
2018-07-01T21:41:01.022Z,44.13
2018-07-01T21:42:19.789Z,43.94
2018-07-01T21:43:35.160Z,44.13
2018-07-01T21:44:51.271Z,44.04
2018-07-01T21:46:06.157Z,44.04
2018-07-01T21:47:22.478Z,43.94
2018-07-01T21:48:40.108Z,44.04
2018-07-01T21:49:56.791Z,44.04
2018-07-01T21:51:14.221Z,44.31
2018-07-01T21:52:28.853Z,45
2018-07-01T21:53:43.775Z,44.71
2018-07-01T21:54:59.807Z,44.79
2018-07-01T21:56:16.005Z,44.69
2018-07-01T21:57:32.607Z,44.79
2018-07-01T21:58:50.371Z,44.79
2018-07-01T22:00:07.857Z,44.98
2018-07-01T22:01:24.512Z,44.89
2018-07-01T22:02:41.205Z,44.89
2018-07-01T22:03:57.622Z,44.89
2018-07-01T22:05:15.816Z,45.46
2018-07-01T22:06:33.545Z,45.36
2018-07-01T22:07:48.831Z,45.84
2018-07-01T22:09:06.149Z,46.01
2018-07-01T22:10:21.882Z,46.01
2018-07-01T22:11:36.450Z,45.92
2018-07-01T22:12:54.454Z,45.92
2018-07-01T22:14:10.762Z,45.73
2018-07-01T22:15:31.547Z,46.11
2018-07-01T22:16:48.751Z,45.92
2018-07-01T22:18:05.692Z,45.83
2018-07-01T22:19:21.935Z,46.31
2018-07-01T22:20:38.753Z,46.5
2018-07-01T22:21:56.013Z,46.69
2018-07-01T22:23:12.703Z,46.5
2018-07-01T22:24:29.193Z,46.31
2018-07-01T22:25:45.161Z,46.4
2018-07-01T22:27:00.733Z,46.4
2018-07-01T22:28:16.573Z,46.59
2018-07-01T22:29:32.330Z,46.59
2018-07-01T22:30:47.467Z,46.78
2018-07-01T22:32:03.514Z,46.98
2018-07-01T22:33:19.920Z,46.98
2018-07-01T22:34:35.898Z,47.36
2018-07-01T22:35:52.078Z,47.24
2018-07-01T22:37:07.411Z,47.05
2018-07-01T22:38:24.721Z,47.36
2018-07-01T22:39:40.885Z,47.65
2018-07-01T22:40:56.516Z,47.44
2018-07-01T22:42:14.092Z,47.53
2018-07-01T22:43:30.810Z,47.63
2018-07-01T22:44:46.850Z,47.72
2018-07-01T22:46:04.208Z,47.72
2018-07-01T22:47:19.141Z,48.02
2018-07-01T22:48:34.252Z,47.82
2018-07-01T22:49:48.818Z,47.72
2018-07-01T22:51:04.597Z,47.72
2018-07-01T22:52:20.372Z,47.63
2018-07-01T22:53:36.194Z,47.72
2018-07-01T22:54:50.931Z,48.02
2018-07-01T22:56:08.639Z,48.4
2018-07-01T22:57:25.456Z,48.69
2018-07-01T22:58:44.481Z,48.69
2018-07-01T23:00:02.191Z,48.66
2018-07-01T23:01:20.372Z,48.95
2018-07-01T23:02:36.092Z,49.07
2018-07-01T23:03:52.311Z,48.88
2018-07-01T23:05:07.411Z,49.24
2018-07-01T23:06:22.824Z,49.27
2018-07-01T23:07:37.096Z,49.33
2018-07-01T23:08:55.623Z,49.24
2018-07-01T23:10:10.644Z,49.91
2018-07-01T23:11:26.170Z,49.63
2018-07-01T23:12:41.258Z,50.01
2018-07-01T23:13:56.318Z,50.01
2018-07-01T23:15:13.467Z,49.91
2018-07-01T23:16:28.215Z,50.49
2018-07-01T23:17:43.943Z,50.59
2018-07-01T23:19:01.048Z,50.4
2018-07-01T23:20:17.065Z,50.68
2018-07-01T23:21:35.724Z,50.49
2018-07-01T23:22:50.311Z,50.49
2018-07-01T23:24:05.556Z,50.56
2018-07-01T23:25:21.339Z,50.78
2018-07-01T23:26:37.349Z,50.97
2018-07-01T23:27:52.716Z,50.97
2018-07-01T23:29:08.597Z,51.26
2018-07-01T23:30:24.421Z,50.85
2018-07-01T23:31:39.930Z,51.33
2018-07-01T23:32:55.416Z,51.43
2018-07-01T23:34:11.281Z,51.62
2018-07-01T23:35:27.014Z,51.53
2018-07-01T23:36:42.422Z,51.72
2018-07-01T23:37:57.564Z,51.72
2018-07-01T23:39:12.629Z,52
2018-07-01T23:40:29.058Z,51.72
2018-07-01T23:41:44.284Z,51.81
2018-07-01T23:43:01.197Z,52
2018-07-01T23:44:17.014Z,52.1
2018-07-01T23:45:33.448Z,52.48
2018-07-01T23:46:51.211Z,52.39
2018-07-01T23:48:05.681Z,52.36
2018-07-01T23:49:20.628Z,52.17
2018-07-01T23:50:35.541Z,52.65
2018-07-01T23:51:50.054Z,52.65
2018-07-01T23:53:03.692Z,52.17
2018-07-01T23:54:18.545Z,52.55
2018-07-01T23:55:32.648Z,52.94
2018-07-01T23:56:48.294Z,53.03
2018-07-01T23:58:02.506Z,52.94
2018-07-01T23:59:16.920Z,53.42
